• Join FlightAware (Why Join?)
  • Login
  • US Flag 
03:38AM EDT


 

Airport Tracker/Info


-or-


 

Live Flight TrackerFlight Track Log ✈ FLG3800 ✈ 16-Apr-2013 ✈ KAZO - KDTW

Flight Track Log - Related Links

Times and Time Zones

All times are in EDT time to prevent confusion due to time zone crossing. See the FLG3800 flight status page for this flight to view local times or setup timezone preferences in your user account.

Time Position Orientation Groundspeed Altitude Reporting Facility
EDT Latitude Longitude Course Direction KTS MPH feet Rate Location/Type
08:17AM 42.1787 -85.2968 107° East  Level FlightAware Approximate
08:18AM 42.1588 -85.2114 107° East  Level FlightAware Approximate
08:18AM 42.2819 -85.3631 108° East 285 328 8,500  Level Chicago Center
08:19AM 42.1389 -85.1262 107° East  Level FlightAware Approximate
08:19AM 42.2356 -85.2467 118° Southeast 306 352 9,000  Level Chicago Center
08:19AM 42.2100 -85.1783 117° Southeast 312 359 9,900 900 Climbing Cleveland Center
08:20AM 42.1189 -85.0409 108° East  Level FlightAware Approximate
08:20AM 42.1669 -85.0522 115° Southeast 335 386 10,500  Level Cleveland Center
08:21AM 42.0988 -84.9557 108° East  Level FlightAware Approximate
08:21AM 42.1161 -84.9114 116° Southeast 371 427 11,000  Level Cleveland Center
08:22AM 42.0745 -84.8531 108° East  Level FlightAware Approximate
08:22AM 42.0669 -84.7736 116° Southeast 406 467 11,000  Level Cleveland Center
08:23AM 42.0501 -84.7505 108° East  Level FlightAware Approximate
08:23AM 42.0236 -84.6450 114° Southeast 400 460 11,000  Level Cleveland Center
08:24AM 41.9822 -84.5167 113° Southeast 382 440 11,000  Level Cleveland Center
08:25AM 41.9444 -84.3942 112° Southeast 376 433 11,000  Level Cleveland Center
08:26AM 41.9006 -84.2772 117° Southeast 378 435 11,000  Level Cleveland Center
08:27AM 41.8661 -84.1719 114° Southeast 382 440 11,000  Level Cleveland Center
08:27AM 41.8567 -84.1436 114° Southeast 368 423 11,000  Level Cleveland Center
08:28AM 41.8414 -84.0311 100° East 388 447 11,000  Level Cleveland Center
08:28AM 41.8419 -84.0089 88° East 358 412 11,000  Level Cleveland Center
08:29AM 41.9178 -83.9125 43° Northeast 321 369 11,000  Level Cleveland Center
08:30AM 42.0014 -83.8358 34° Northeast 373 429 11,000  Level Cleveland Center
08:31AM 42.0617 -83.7717 38° Northeast 330 380 11,000  Level Cleveland Center
08:31AM 42.0767 -83.7500 47° Northeast 339 390 11,000  Level Cleveland Center
08:32AM 42.1392 -83.6803 40° Northeast 327 376 11,000  Level Cleveland Center
08:33AM 42.1975 -83.6047 44° Northeast 273 314 11,000 -360 Level Cleveland Center
08:34AM 42.2581 -83.5150 48° Northeast 277 319 10,300 -960 Descending Cleveland Center
08:35AM 42.3219 -83.4647 30° Northeast 264 304 8,900 -1,380 Descending Cleveland Center
08:36AM 42.3875 -83.4283 22° Northeast 248 285 7,600 -900 Descending Cleveland Center
08:38AM 42.4614 -83.3864 23° Northeast 240 276 7,000 -480 Descending Cleveland Center
08:39AM 42.5208 -83.3469 26° Northeast 241 277 6,600 -960 Descending Cleveland Center
08:40AM 42.5622 -83.2725 53° Northeast 253 291 5,100 -1,320 Descending Cleveland Center
08:41AM 42.5622 -83.1822 90° East 206 237 4,000 -1,140 Descending Cleveland Center